Terminal Aerodrome Forecast
Issued by NWS

Home | Current Version | Previous Version | Text Only | Print | Product List | Glossary On
Versions: 1 2 3 4 5 6 7 8 9 10 11 12 13 14 15 16 17 18
000
FTUS43 KGRR 020500
TAFBTL
TAF
KBTL 020540Z 0206/0306 17010G15KT P6SM BKN150
     FM021100 18011G17KT 5SM -SHRA VCTS BKN050CB
     FM021500 20015G25KT 4SM TSRA BR OVC035CB
     FM021900 26010G20KT 2SM -DZ BR OVC025
     FM030200 28004KT P6SM SCT025=

USA.gov is the U.S. government's official web portal to all federal, state and local government web resources and services.